createdAt,value
2023-03-06T00:00:56.988Z,4.20
2023-03-06T00:03:28.001Z,3.90
2023-03-06T00:05:58.009Z,4.00
2023-03-06T00:10:56.325Z,3.90
2023-03-06T00:13:30.215Z,4.30
2023-03-06T00:16:01.021Z,4.00
2023-03-06T00:18:29.322Z,4.30
2023-03-06T00:20:57.436Z,4.40
2023-03-06T00:23:27.618Z,4.10
2023-03-06T00:25:55.882Z,4.30
2023-03-06T00:28:24.085Z,4.50
2023-03-06T00:30:52.174Z,4.00
2023-03-06T00:33:20.281Z,4.60
2023-03-06T00:35:48.385Z,4.40
2023-03-06T00:38:16.411Z,4.00
2023-03-06T00:40:44.593Z,4.20
2023-03-06T00:43:13.213Z,4.10
2023-03-06T00:45:41.326Z,4.10
2023-03-06T00:48:10.903Z,4.50
2023-03-06T00:50:39.009Z,4.20
2023-03-06T00:53:07.055Z,4.60
2023-03-06T00:55:35.199Z,4.10
2023-03-06T00:58:03.241Z,4.10
2023-03-06T01:00:31.530Z,3.90
2023-03-06T01:02:59.625Z,4.50
2023-03-06T01:05:27.876Z,4.30
2023-03-06T01:07:55.923Z,4.30
2023-03-06T01:10:24.064Z,4.80
2023-03-06T01:12:52.061Z,4.60
2023-03-06T01:15:20.743Z,4.40
2023-03-06T01:17:52.474Z,4.50
2023-03-06T01:20:20.831Z,4.20
2023-03-06T01:22:48.967Z,4.70
2023-03-06T01:25:17.129Z,4.10
2023-03-06T01:27:45.140Z,4.20
2023-03-06T01:30:13.637Z,4.30
2023-03-06T01:32:41.781Z,4.00
2023-03-06T01:35:10.355Z,4.50
2023-03-06T01:37:39.316Z,4.50
2023-03-06T01:40:10.427Z,3.80
2023-03-06T01:42:38.596Z,4.50
2023-03-06T01:45:15.528Z,4.40
2023-03-06T01:47:44.899Z,4.50
2023-03-06T01:50:13.171Z,4.00
2023-03-06T01:52:49.464Z,4.20
2023-03-06T01:55:23.908Z,4.00
2023-03-06T01:57:57.778Z,3.60
2023-03-06T02:00:28.052Z,3.90
2023-03-06T02:03:04.069Z,4.40
2023-03-06T02:05:33.180Z,3.90
2023-03-06T02:08:03.928Z,4.30
2023-03-06T02:10:32.418Z,4.40
2023-03-06T02:13:00.911Z,4.90
2023-03-06T02:15:30.189Z,3.90
2023-03-06T02:18:00.455Z,4.10
2023-03-06T02:20:37.579Z,4.70
2023-03-06T02:23:11.257Z,4.70
2023-03-06T02:25:44.226Z,4.60
2023-03-06T02:28:15.272Z,4.80
2023-03-06T02:30:44.946Z,4.60
2023-03-06T02:33:19.282Z,4.90
2023-03-06T02:35:52.691Z,4.50
2023-03-06T02:38:25.029Z,4.70
2023-03-06T02:40:53.275Z,4.70
2023-03-06T02:43:32.052Z,4.80
2023-03-06T02:46:00.206Z,5.50
2023-03-06T02:48:28.372Z,5.30
2023-03-06T02:50:56.425Z,4.80
2023-03-06T02:53:24.670Z,5.20
2023-03-06T02:55:53.444Z,5.20
2023-03-06T02:58:21.531Z,5.10
2023-03-06T03:00:50.195Z,4.70
2023-03-06T03:03:18.629Z,5.00
2023-03-06T03:05:46.656Z,4.70
2023-03-06T03:08:14.744Z,4.50
2023-03-06T03:10:43.003Z,4.90
2023-03-06T03:13:11.052Z,5.00
2023-03-06T03:15:39.150Z,5.20
2023-03-06T03:18:07.389Z,5.10
2023-03-06T03:20:35.418Z,5.20
2023-03-06T03:23:03.797Z,5.60
2023-03-06T03:25:31.948Z,5.20
2023-03-06T03:27:59.947Z,5.50
2023-03-06T03:30:28.049Z,7.40
2023-03-06T03:32:56.667Z,6.20
2023-03-06T03:35:24.708Z,6.70
2023-03-06T03:37:54.740Z,7.40
2023-03-06T03:42:51.336Z,7.10
2023-03-06T03:45:19.514Z,8.60
2023-03-06T03:47:47.628Z,10.60
2023-03-06T03:50:15.719Z,8.70
2023-03-06T03:52:43.872Z,8.00
2023-03-06T03:55:12.062Z,8.20
2023-03-06T03:57:40.127Z,8.00
2023-03-06T04:00:11.996Z,7.70
2023-03-06T04:02:40.144Z,8.40
2023-03-06T04:05:08.753Z,7.40
2023-03-06T04:07:37.072Z,7.60
2023-03-06T04:10:06.841Z,6.90
2023-03-06T04:12:35.929Z,7.10
2023-03-06T04:15:07.732Z,6.60
2023-03-06T04:17:36.096Z,6.40
2023-03-06T04:20:05.109Z,6.00
2023-03-06T04:22:33.147Z,6.10
2023-03-06T04:25:01.361Z,6.40
2023-03-06T04:27:29.364Z,5.60
2023-03-06T04:29:57.457Z,5.50
2023-03-06T04:32:25.591Z,5.70
2023-03-06T04:34:53.605Z,5.80
2023-03-06T04:37:25.442Z,5.30
2023-03-06T04:39:53.559Z,5.60
2023-03-06T04:42:21.940Z,6.10
2023-03-06T04:44:49.996Z,6.60
2023-03-06T04:47:19.206Z,6.20
2023-03-06T04:49:47.747Z,6.40
2023-03-06T04:52:15.755Z,7.30
2023-03-06T04:54:43.868Z,7.00
2023-03-06T04:57:13.034Z,7.00
2023-03-06T04:59:41.144Z,6.20
2023-03-06T05:02:09.270Z,6.10
2023-03-06T05:04:37.355Z,5.70
2023-03-06T05:07:05.562Z,5.70
2023-03-06T05:09:35.001Z,5.40
2023-03-06T05:12:03.806Z,6.00
2023-03-06T05:14:32.360Z,6.50
2023-03-06T05:17:00.602Z,6.60
2023-03-06T05:19:28.635Z,7.50
2023-03-06T05:21:56.840Z,10.60
2023-03-06T05:24:25.943Z,10.50
2023-03-06T05:26:54.036Z,9.80
2023-03-06T05:29:22.591Z,8.80
2023-03-06T05:31:50.664Z,7.80
2023-03-06T05:34:18.770Z,8.10
2023-03-06T05:36:47.461Z,7.80
2023-03-06T05:39:15.584Z,8.30
2023-03-06T05:41:43.680Z,8.00
2023-03-06T05:44:11.735Z,7.60
2023-03-06T05:46:40.015Z,9.00
2023-03-06T05:49:08.433Z,8.00
2023-03-06T05:51:36.564Z,7.90
2023-03-06T05:54:04.600Z,8.50
2023-03-06T05:56:32.966Z,8.40
2023-03-06T05:59:00.954Z,10.60
2023-03-06T06:01:29.939Z,8.50
2023-03-06T06:03:58.107Z,7.00
2023-03-06T06:06:26.194Z,5.50
2023-03-06T06:08:54.256Z,8.10
2023-03-06T06:11:22.336Z,10.30
2023-03-06T06:13:50.558Z,11.00
2023-03-06T06:16:19.546Z,11.30
2023-03-06T06:18:47.954Z,10.90
2023-03-06T06:21:16.130Z,9.90
2023-03-06T06:23:44.323Z,8.50
2023-03-06T06:26:12.511Z,7.70
2023-03-06T06:28:40.587Z,8.10
2023-03-06T06:31:10.799Z,7.20
2023-03-06T06:33:40.293Z,6.90
2023-03-06T06:36:21.594Z,6.80
2023-03-06T06:38:50.162Z,7.00
2023-03-06T06:41:52.988Z,7.80
2023-03-06T06:44:08.546Z,6.80
2023-03-06T06:47:20.873Z,7.40
2023-03-06T06:49:25.857Z,6.70
2023-03-06T06:51:53.913Z,8.30
2023-03-06T06:54:22.464Z,7.40
2023-03-06T06:56:51.275Z,8.00
2023-03-06T06:59:19.448Z,8.50
2023-03-06T07:01:47.666Z,8.50
2023-03-06T07:04:16.746Z,7.90
2023-03-06T07:06:45.485Z,8.40
2023-03-06T07:09:14.181Z,9.50
2023-03-06T07:11:42.407Z,10.70
2023-03-06T07:14:10.425Z,10.20
2023-03-06T07:16:38.510Z,9.30
2023-03-06T07:19:07.487Z,8.70
2023-03-06T07:21:35.716Z,8.20
2023-03-06T07:24:04.827Z,8.20
2023-03-06T07:26:34.784Z,7.90
2023-03-06T07:29:04.508Z,8.60
2023-03-06T07:31:32.633Z,7.80
2023-03-06T07:34:02.530Z,7.60
2023-03-06T07:36:33.027Z,7.40
2023-03-06T07:39:01.216Z,7.70
2023-03-06T07:41:29.283Z,7.40
2023-03-06T07:43:57.444Z,7.00
2023-03-06T07:46:25.780Z,5.90
2023-03-06T07:48:53.914Z,5.10
2023-03-06T07:51:22.745Z,5.50
2023-03-06T07:53:50.797Z,4.60
2023-03-06T07:56:18.878Z,4.70
2023-03-06T07:58:48.304Z,4.80
2023-03-06T08:01:19.984Z,4.70
2023-03-06T08:03:50.223Z,4.90
2023-03-06T08:06:24.328Z,4.60
2023-03-06T08:08:54.480Z,4.40
2023-03-06T08:11:25.685Z,4.40
2023-03-06T08:13:55.309Z,4.50
2023-03-06T08:16:26.348Z,4.40
2023-03-06T08:18:54.840Z,5.00
2023-03-06T08:21:25.846Z,5.40
2023-03-06T08:23:54.290Z,5.70
2023-03-06T08:26:24.803Z,6.00
2023-03-06T08:28:54.455Z,5.80
2023-03-06T08:31:27.823Z,6.10
2023-03-06T08:33:57.570Z,5.60
2023-03-06T08:36:26.511Z,5.70
2023-03-06T08:38:54.834Z,5.30
2023-03-06T08:41:22.985Z,6.00
2023-03-06T08:43:51.143Z,5.80
2023-03-06T08:46:21.525Z,5.40
2023-03-06T08:48:49.574Z,5.40
2023-03-06T08:51:18.688Z,5.20
2023-03-06T08:53:47.023Z,5.10
2023-03-06T08:56:23.802Z,5.10
2023-03-06T08:58:52.981Z,5.80
2023-03-06T09:01:33.197Z,5.70
2023-03-06T09:04:03.779Z,6.00
2023-03-06T09:06:35.429Z,5.80
2023-03-06T09:09:04.509Z,5.80
2023-03-06T09:11:33.168Z,5.80
2023-03-06T09:14:01.593Z,5.30
2023-03-06T09:16:29.877Z,5.90
2023-03-06T09:18:58.864Z,5.30
2023-03-06T09:21:28.660Z,6.50
2023-03-06T09:23:56.977Z,5.80
2023-03-06T09:26:39.699Z,5.90
2023-03-06T09:29:13.181Z,5.70
2023-03-06T09:31:41.238Z,5.20
2023-03-06T09:34:09.368Z,5.60
2023-03-06T09:36:53.293Z,5.80
2023-03-06T09:39:24.157Z,5.30
2023-03-06T09:41:53.091Z,6.20
2023-03-06T09:44:27.850Z,5.40
2023-03-06T09:47:20.505Z,5.40
2023-03-06T09:50:09.923Z,5.50
2023-03-06T09:52:47.073Z,5.10
2023-03-06T09:55:17.991Z,5.70
2023-03-06T09:58:16.821Z,5.20
2023-03-06T10:01:03.456Z,5.30
2023-03-06T10:03:38.991Z,5.00
2023-03-06T10:06:13.041Z,5.60
2023-03-06T10:09:12.018Z,5.10
2023-03-06T10:11:49.527Z,5.30
2023-03-06T10:14:20.388Z,5.30
2023-03-06T10:16:48.803Z,5.10
2023-03-06T10:19:19.240Z,4.90
2023-03-06T10:22:00.300Z,4.80
2023-03-06T10:24:49.826Z,5.20
2023-03-06T10:27:39.758Z,5.40
2023-03-06T10:30:41.527Z,5.60
2023-03-06T10:33:41.926Z,5.50
2023-03-06T10:36:16.368Z,5.10
2023-03-06T10:38:48.385Z,4.60
2023-03-06T10:41:30.270Z,4.70
2023-03-06T10:44:01.148Z,4.60
2023-03-06T10:46:31.933Z,4.40
2023-03-06T10:49:06.350Z,4.00
2023-03-06T10:51:35.679Z,3.70
2023-03-06T10:54:19.712Z,3.80
2023-03-06T10:56:48.280Z,3.70
2023-03-06T10:59:19.046Z,3.70
2023-03-06T11:01:49.529Z,3.20
2023-03-06T11:04:25.700Z,3.30
2023-03-06T11:07:19.648Z,3.00
2023-03-06T11:10:15.799Z,3.20
2023-03-06T11:12:55.786Z,3.60
2023-03-06T11:17:57.855Z,2.80
2023-03-06T11:20:31.789Z,3.20
2023-03-06T11:23:12.500Z,2.90
2023-03-06T11:25:48.841Z,3.40
2023-03-06T11:28:25.793Z,3.60
2023-03-06T11:31:03.973Z,3.60
2023-03-06T11:34:07.611Z,3.50
2023-03-06T11:36:48.092Z,3.40
2023-03-06T11:39:54.816Z,3.90
2023-03-06T11:42:34.956Z,3.20
2023-03-06T11:45:32.824Z,3.60
2023-03-06T11:48:21.025Z,4.00
2023-03-06T11:51:19.277Z,3.50
2023-03-06T11:53:50.574Z,4.30
2023-03-06T11:56:18.663Z,4.70
2023-03-06T11:59:01.556Z,4.60
2023-03-06T12:01:42.085Z,4.10
2023-03-06T12:04:28.878Z,3.20
2023-03-06T12:07:12.055Z,2.90
2023-03-06T12:09:49.881Z,2.70
2023-03-06T12:12:25.908Z,2.80
2023-03-06T12:15:17.129Z,3.20
2023-03-06T12:18:09.868Z,2.60
2023-03-06T12:20:52.954Z,2.60
2023-03-06T12:23:42.150Z,2.80
2023-03-06T12:26:31.155Z,3.30
2023-03-06T12:29:13.234Z,3.40
2023-03-06T12:32:10.151Z,3.00
2023-03-06T12:35:05.955Z,3.30
2023-03-06T12:37:37.032Z,3.10
2023-03-06T12:40:40.266Z,3.00
2023-03-06T12:43:40.122Z,3.80
2023-03-06T12:49:01.401Z,3.00
2023-03-06T12:51:30.433Z,3.00
2023-03-06T12:54:01.748Z,3.50
2023-03-06T12:56:31.410Z,3.50
2023-03-06T12:59:03.392Z,3.50
2023-03-06T13:01:43.624Z,3.40
2023-03-06T13:04:17.592Z,3.60
2023-03-06T13:06:57.585Z,3.70
2023-03-06T13:09:55.882Z,3.50
2023-03-06T13:12:30.055Z,3.00
2023-03-06T13:15:18.845Z,3.50
2023-03-06T13:17:47.038Z,3.30
2023-03-06T13:20:15.037Z,3.70
2023-03-06T13:22:45.266Z,3.90
2023-03-06T13:25:19.637Z,3.60
2023-03-06T13:27:53.967Z,3.50
2023-03-06T13:30:27.282Z,4.00
2023-03-06T13:32:56.287Z,4.20
2023-03-06T13:35:30.753Z,4.20
2023-03-06T13:38:00.254Z,5.80
2023-03-06T13:40:31.855Z,5.80
2023-03-06T13:43:05.250Z,5.60
2023-03-06T13:45:43.297Z,3.70
2023-03-06T13:48:42.996Z,4.00
2023-03-06T13:51:25.189Z,3.70
2023-03-06T13:54:08.913Z,4.00
2023-03-06T13:57:08.111Z,3.50
2023-03-06T14:00:03.102Z,4.40
2023-03-06T14:02:52.772Z,3.90
2023-03-06T14:05:21.782Z,3.60
2023-03-06T14:08:18.592Z,3.60
2023-03-06T14:10:49.130Z,3.50
2023-03-06T14:13:23.057Z,2.80
2023-03-06T14:15:53.337Z,2.70
2023-03-06T14:18:40.043Z,2.80
2023-03-06T14:21:13.566Z,2.30
2023-03-06T14:23:43.834Z,2.30
2023-03-06T14:26:23.998Z,2.90
2023-03-06T14:28:52.157Z,2.70
2023-03-06T14:31:22.816Z,3.30
2023-03-06T14:33:55.134Z,3.20
2023-03-06T14:36:36.424Z,5.80
2023-03-06T14:39:19.656Z,3.30
2023-03-06T14:41:47.962Z,8.10
2023-03-06T14:44:26.599Z,5.20
2023-03-06T14:46:57.704Z,4.30
2023-03-06T14:49:26.963Z,6.20
2023-03-06T14:52:00.715Z,6.60
2023-03-06T14:54:32.176Z,4.70
2023-03-06T14:57:06.060Z,4.40
2023-03-06T14:59:52.126Z,5.80
2023-03-06T15:02:24.547Z,6.00
2023-03-06T15:05:02.423Z,6.00
2023-03-06T15:07:33.452Z,5.40
2023-03-06T15:10:01.860Z,4.90
2023-03-06T15:12:35.426Z,4.70
2023-03-06T15:15:25.581Z,4.30
2023-03-06T15:17:54.484Z,5.20
2023-03-06T15:20:48.710Z,4.40
2023-03-06T15:23:27.319Z,4.20
2023-03-06T15:26:02.236Z,4.60
2023-03-06T15:28:39.596Z,5.80
2023-03-06T15:31:10.537Z,7.80
2023-03-06T15:33:38.742Z,9.70
2023-03-06T15:36:20.474Z,7.70
2023-03-06T15:38:48.741Z,8.40
2023-03-06T15:41:30.491Z,7.40
2023-03-06T15:44:04.642Z,6.20
2023-03-06T15:46:32.852Z,6.60
2023-03-06T15:49:03.412Z,7.70
2023-03-06T15:51:33.455Z,7.60
2023-03-06T15:54:12.026Z,8.40
2023-03-06T15:56:44.057Z,8.30
2023-03-06T15:59:22.162Z,7.50
2023-03-06T16:01:51.170Z,6.00
2023-03-06T16:04:20.039Z,5.90
2023-03-06T16:06:48.341Z,5.50
2023-03-06T16:09:16.559Z,5.40
2023-03-06T16:11:45.335Z,5.80
2023-03-06T16:14:23.835Z,5.50
2023-03-06T16:16:54.296Z,6.00
2023-03-06T16:19:27.338Z,5.90
2023-03-06T16:21:56.621Z,5.70
2023-03-06T16:24:26.342Z,5.50
2023-03-06T16:26:55.375Z,6.70
2023-03-06T16:29:28.162Z,6.70
2023-03-06T16:31:57.792Z,7.00
2023-03-06T16:34:26.164Z,7.20
2023-03-06T16:36:54.384Z,7.40
2023-03-06T16:39:24.043Z,8.00
2023-03-06T16:41:53.168Z,7.50
2023-03-06T16:44:21.720Z,6.60
2023-03-06T16:46:50.605Z,6.60
2023-03-06T16:49:24.423Z,7.00
2023-03-06T16:51:53.354Z,6.60
2023-03-06T16:54:24.285Z,6.00
2023-03-06T16:56:52.474Z,6.30
2023-03-06T16:59:20.588Z,6.50
2023-03-06T17:01:48.824Z,5.80
2023-03-06T17:04:16.901Z,5.50
2023-03-06T17:06:45.059Z,6.10
2023-03-06T17:09:14.494Z,5.60
2023-03-06T17:11:46.761Z,5.30
2023-03-06T17:14:15.112Z,5.60
2023-03-06T17:16:43.263Z,6.00
2023-03-06T17:19:15.309Z,5.90
2023-03-06T17:21:44.431Z,6.00
2023-03-06T17:24:12.561Z,6.50
2023-03-06T17:26:40.758Z,6.30
2023-03-06T17:29:09.730Z,7.30
2023-03-06T17:31:37.829Z,7.00
2023-03-06T17:34:05.962Z,7.10
2023-03-06T17:36:34.255Z,6.50
2023-03-06T17:39:03.219Z,6.80
2023-03-06T17:41:32.980Z,13.00
2023-03-06T17:44:02.032Z,21.20
2023-03-06T17:46:32.268Z,23.90
2023-03-06T17:49:27.617Z,24.90
2023-03-06T17:55:42.260Z,17.90
2023-03-06T17:58:23.409Z,18.10
2023-03-06T18:00:51.647Z,14.40
2023-03-06T18:03:20.060Z,13.40
2023-03-06T18:05:59.602Z,12.40
2023-03-06T18:08:29.904Z,11.90
2023-03-06T18:13:36.997Z,11.70
2023-03-06T18:16:13.992Z,12.00
2023-03-06T18:18:42.209Z,11.00
2023-03-06T18:21:13.869Z,10.50
2023-03-06T18:23:43.879Z,9.80
2023-03-06T18:26:25.129Z,8.00
2023-03-06T18:29:08.136Z,8.20
2023-03-06T18:31:47.043Z,7.50
2023-03-06T18:34:19.288Z,8.50
2023-03-06T18:36:49.400Z,10.30
2023-03-06T18:39:38.708Z,14.50
2023-03-06T18:42:07.803Z,17.60
2023-03-06T18:44:57.757Z,22.50
2023-03-06T18:48:29.645Z,29.00
2023-03-06T18:51:25.825Z,33.50
2023-03-06T18:54:02.582Z,33.20
2023-03-06T19:00:01.132Z,32.90
2023-03-06T19:02:40.000Z,27.20
2023-03-06T19:05:10.728Z,23.70
2023-03-06T19:07:43.571Z,20.80
2023-03-06T19:10:26.889Z,16.20
2023-03-06T19:12:55.807Z,15.70
2023-03-06T19:15:25.236Z,21.40
2023-03-06T19:17:53.840Z,22.80
2023-03-06T19:20:22.992Z,18.10
2023-03-06T19:22:51.315Z,17.60
2023-03-06T19:25:20.348Z,18.30
2023-03-06T19:27:48.473Z,16.80
2023-03-06T19:30:16.780Z,16.30
2023-03-06T19:32:46.126Z,14.20
2023-03-06T19:35:14.299Z,12.90
2023-03-06T19:37:42.463Z,11.80
2023-03-06T19:40:11.438Z,12.10
2023-03-06T19:42:39.744Z,14.30
2023-03-06T19:45:08.568Z,15.30
2023-03-06T19:47:36.664Z,16.20
2023-03-06T19:50:05.203Z,18.10
2023-03-06T19:52:36.539Z,18.40
2023-03-06T19:55:05.596Z,18.80
2023-03-06T19:57:33.896Z,18.30
2023-03-06T20:00:02.118Z,17.00
2023-03-06T20:02:32.624Z,15.50
2023-03-06T20:05:00.827Z,15.30
2023-03-06T20:07:28.967Z,14.80
2023-03-06T20:10:00.778Z,15.70
2023-03-06T20:12:29.133Z,16.80
2023-03-06T20:14:57.297Z,16.70
2023-03-06T20:17:25.563Z,14.20
2023-03-06T20:19:55.963Z,14.20
2023-03-06T20:22:24.092Z,15.30
2023-03-06T20:24:52.673Z,15.30
2023-03-06T20:27:20.782Z,14.20
2023-03-06T20:29:48.904Z,13.00
2023-03-06T20:32:16.995Z,12.10
2023-03-06T20:34:45.395Z,12.00
2023-03-06T20:37:13.556Z,13.20
2023-03-06T20:39:41.740Z,11.60
2023-03-06T20:42:10.005Z,9.70
2023-03-06T20:44:38.188Z,10.10
2023-03-06T20:47:06.318Z,9.60
2023-03-06T20:49:55.519Z,9.70
2023-03-06T20:52:25.284Z,10.10
2023-03-06T20:54:57.125Z,10.70
2023-03-06T20:57:25.215Z,10.90
2023-03-06T21:00:11.158Z,9.80
2023-03-06T21:02:39.584Z,9.40
2023-03-06T21:05:08.837Z,9.10
2023-03-06T21:07:37.578Z,9.10
2023-03-06T21:10:06.498Z,9.50
2023-03-06T21:12:34.588Z,10.40
2023-03-06T21:15:02.907Z,10.90
2023-03-06T21:17:31.195Z,11.00
2023-03-06T21:19:59.418Z,12.20
2023-03-06T21:22:29.785Z,11.20
2023-03-06T21:24:57.984Z,11.00
2023-03-06T21:27:26.158Z,11.40
2023-03-06T21:29:54.271Z,9.50
2023-03-06T21:32:23.191Z,9.70
2023-03-06T21:34:51.492Z,8.80
2023-03-06T21:37:19.614Z,9.10
2023-03-06T21:39:47.661Z,8.50
2023-03-06T21:42:15.804Z,8.60
2023-03-06T21:44:44.280Z,9.10
2023-03-06T21:47:12.364Z,8.20
2023-03-06T21:49:40.483Z,8.20
2023-03-06T21:52:08.584Z,8.10
2023-03-06T21:54:36.634Z,7.90
2023-03-06T21:57:05.062Z,8.10
2023-03-06T21:59:33.165Z,8.10
2023-03-06T22:02:01.217Z,7.80
2023-03-06T22:04:29.366Z,8.70
2023-03-06T22:06:57.424Z,8.40
2023-03-06T22:09:25.526Z,7.70
2023-03-06T22:11:53.705Z,7.40
2023-03-06T22:14:21.840Z,7.70
2023-03-06T22:16:51.462Z,7.30
2023-03-06T22:19:19.644Z,6.60
2023-03-06T22:21:47.742Z,6.70
2023-03-06T22:24:15.786Z,6.40
2023-03-06T22:26:44.159Z,7.40
2023-03-06T22:29:12.226Z,6.30
2023-03-06T22:31:42.192Z,7.00
2023-03-06T22:34:10.428Z,6.50
2023-03-06T22:36:38.600Z,7.70
2023-03-06T22:39:06.767Z,8.50
2023-03-06T22:41:34.870Z,7.10
2023-03-06T22:44:03.193Z,7.30
2023-03-06T22:46:32.957Z,6.60
2023-03-06T22:49:02.045Z,6.20
2023-03-06T22:51:30.251Z,6.20
2023-03-06T22:53:58.454Z,6.20
2023-03-06T22:56:26.570Z,6.10
2023-03-06T22:58:55.024Z,6.50
2023-03-06T23:01:29.879Z,6.00
2023-03-06T23:04:00.527Z,6.30
2023-03-06T23:06:34.975Z,6.90
2023-03-06T23:09:09.239Z,6.10
2023-03-06T23:11:37.445Z,5.50
2023-03-06T23:14:06.000Z,5.50
2023-03-06T23:16:35.862Z,5.70
2023-03-06T23:19:05.234Z,5.60
2023-03-06T23:21:34.568Z,5.50
2023-03-06T23:24:02.999Z,5.60
2023-03-06T23:26:32.085Z,5.40
2023-03-06T23:29:00.704Z,5.40
2023-03-06T23:31:31.117Z,4.70
2023-03-06T23:34:01.748Z,4.80
2023-03-06T23:36:30.671Z,4.40
2023-03-06T23:38:58.792Z,4.60
2023-03-06T23:41:26.990Z,5.00
2023-03-06T23:43:55.454Z,4.90
2023-03-06T23:46:23.603Z,4.40
2023-03-06T23:48:52.405Z,4.40
2023-03-06T23:51:22.410Z,4.60
2023-03-06T23:53:59.061Z,4.80
2023-03-06T23:56:28.614Z,4.30
2023-03-06T23:58:56.815Z,4.50
